createdAt,value
2022-11-18T00:01:04.608Z,6.67
2022-11-18T00:03:51.147Z,6.47
2022-11-18T00:06:33.360Z,6.41
2022-11-18T00:09:24.442Z,6.39
2022-11-18T00:12:22.349Z,6.57
2022-11-18T00:15:11.111Z,6.39
2022-11-18T00:17:55.819Z,6.40
2022-11-18T00:20:39.499Z,6.34
2022-11-18T00:23:27.402Z,6.30
2022-11-18T00:26:17.087Z,6.27
2022-11-18T00:28:55.449Z,6.21
2022-11-18T00:31:48.440Z,6.22
2022-11-18T00:34:33.722Z,6.16
2022-11-18T00:37:17.333Z,6.10
2022-11-18T00:40:06.007Z,6.28
2022-11-18T00:43:00.004Z,6.13
2022-11-18T00:45:39.765Z,6.09
2022-11-18T00:48:22.963Z,6.06
2022-11-18T00:51:15.031Z,6.12
2022-11-18T00:54:01.219Z,6.14
2022-11-18T00:56:54.225Z,6.21
2022-11-18T00:59:38.496Z,6.25
2022-11-18T01:02:26.212Z,6.28
2022-11-18T01:05:09.648Z,6.34
2022-11-18T01:07:56.196Z,6.39
2022-11-18T01:10:47.454Z,6.48
2022-11-18T01:13:35.377Z,6.41
2022-11-18T01:16:29.691Z,6.54
2022-11-18T01:19:14.007Z,6.52
2022-11-18T01:21:56.726Z,6.40
2022-11-18T01:24:49.210Z,6.42
2022-11-18T01:27:33.423Z,6.51
2022-11-18T01:30:22.619Z,6.44
2022-11-18T01:33:10.031Z,6.41
2022-11-18T01:36:10.127Z,6.44
2022-11-18T01:38:55.267Z,6.34
2022-11-18T01:41:46.417Z,6.45
2022-11-18T01:44:53.240Z,6.57
2022-11-18T01:47:41.553Z,6.61
2022-11-18T01:50:28.559Z,6.63
2022-11-18T01:53:15.524Z,6.67
2022-11-18T01:55:57.336Z,6.81
2022-11-18T01:58:50.117Z,6.68
2022-11-18T02:01:36.612Z,6.81
2022-11-18T02:04:33.769Z,6.87
2022-11-18T02:07:09.984Z,6.90
2022-11-18T02:09:54.555Z,6.93
2022-11-18T02:12:36.490Z,6.84
2022-11-18T02:15:25.220Z,6.87
2022-11-18T02:18:32.002Z,6.91
2022-11-18T02:22:04.117Z,6.90
2022-11-18T02:25:14.597Z,6.91
2022-11-18T02:28:19.478Z,6.99
2022-11-18T02:31:22.259Z,6.86
2022-11-18T02:34:15.525Z,6.96
2022-11-18T02:37:29.166Z,6.93
2022-11-18T02:40:17.707Z,6.94
2022-11-18T02:43:23.497Z,6.93
2022-11-18T02:46:11.490Z,6.98
2022-11-18T02:48:56.038Z,6.94
2022-11-18T02:51:31.981Z,6.88
2022-11-18T02:54:20.518Z,6.95
2022-11-18T02:56:59.366Z,6.79
2022-11-18T02:59:47.128Z,7.00
2022-11-18T03:02:47.742Z,7.04
2022-11-18T03:05:52.007Z,7.02
2022-11-18T03:08:51.037Z,7.07
2022-11-18T03:12:02.404Z,7.16
2022-11-18T03:15:06.662Z,7.13
2022-11-18T03:18:13.776Z,7.10
2022-11-18T03:21:06.414Z,7.11
2022-11-18T03:23:50.870Z,7.12
2022-11-18T03:26:36.562Z,7.20
2022-11-18T03:29:18.496Z,7.17
2022-11-18T03:32:06.527Z,7.10
2022-11-18T03:35:01.348Z,6.90
2022-11-18T03:37:41.355Z,6.87
2022-11-18T03:40:44.668Z,6.89
2022-11-18T03:43:35.560Z,6.81
2022-11-18T03:46:49.838Z,6.73
2022-11-18T03:49:47.475Z,6.86
2022-11-18T03:52:48.262Z,6.90
2022-11-18T03:55:32.184Z,6.94
2022-11-18T03:58:33.921Z,6.84
2022-11-18T04:01:22.826Z,7.06
2022-11-18T04:04:12.430Z,7.08
2022-11-18T04:07:18.200Z,6.98
2022-11-18T04:10:14.853Z,7.00
2022-11-18T04:13:16.372Z,7.08
2022-11-18T04:16:10.738Z,7.08
2022-11-18T04:19:06.184Z,7.14
2022-11-18T04:21:53.063Z,7.14
2022-11-18T04:24:37.838Z,6.82
2022-11-18T04:27:19.037Z,6.97
2022-11-18T04:30:11.292Z,7.04
2022-11-18T04:32:58.587Z,6.80
2022-11-18T04:35:36.732Z,6.47
2022-11-18T04:38:23.704Z,6.66
2022-11-18T04:41:02.760Z,6.64
2022-11-18T04:43:48.942Z,6.87
2022-11-18T04:46:38.414Z,6.90
2022-11-18T04:49:25.633Z,7.09
2022-11-18T04:52:12.486Z,7.14
2022-11-18T04:54:56.409Z,7.29
2022-11-18T04:57:49.476Z,7.29
2022-11-18T05:00:25.404Z,7.09
2022-11-18T05:03:13.587Z,7.07
2022-11-18T05:05:59.364Z,7.07
2022-11-18T05:08:42.981Z,7.08
2022-11-18T05:11:41.452Z,7.07
2022-11-18T05:14:34.367Z,7.04
2022-11-18T05:17:11.819Z,6.99
2022-11-18T05:19:58.540Z,6.92
2022-11-18T05:22:45.327Z,6.91
2022-11-18T05:25:26.022Z,6.90
2022-11-18T05:28:14.546Z,6.77
2022-11-18T05:31:15.868Z,6.78
2022-11-18T05:33:56.907Z,6.69
2022-11-18T05:36:40.521Z,6.72
2022-11-18T05:39:26.018Z,6.76
2022-11-18T05:42:24.703Z,6.71
2022-11-18T05:45:11.791Z,6.69
2022-11-18T05:48:08.061Z,6.72
2022-11-18T05:50:57.088Z,6.68
2022-11-18T05:53:38.582Z,6.68
2022-11-18T05:56:32.553Z,6.79
2022-11-18T05:59:10.474Z,6.62
2022-11-18T06:02:07.033Z,6.71
2022-11-18T06:04:45.370Z,6.70
2022-11-18T06:07:44.674Z,6.73
2022-11-18T06:10:42.321Z,6.73
2022-11-18T06:13:37.888Z,6.73
2022-11-18T06:16:18.805Z,6.78
2022-11-18T06:19:02.062Z,6.83
2022-11-18T06:21:37.170Z,6.74
2022-11-18T06:24:30.408Z,6.76
2022-11-18T06:27:05.956Z,6.72
2022-11-18T06:29:49.995Z,6.70
2022-11-18T06:32:44.415Z,6.69
2022-11-18T06:35:34.146Z,6.71
2022-11-18T06:38:25.592Z,6.68
2022-11-18T06:41:11.136Z,6.76
2022-11-18T06:43:58.031Z,6.80
2022-11-18T06:46:58.265Z,6.79
2022-11-18T06:49:41.405Z,6.51
2022-11-18T06:52:31.616Z,6.68
2022-11-18T06:55:15.578Z,6.73
2022-11-18T06:57:57.107Z,6.70
2022-11-18T07:00:57.436Z,6.74
2022-11-18T07:03:38.700Z,6.73
2022-11-18T07:06:40.890Z,6.76
2022-11-18T07:09:31.423Z,6.71
2022-11-18T07:12:13.212Z,6.78
2022-11-18T07:15:01.766Z,6.77
2022-11-18T07:17:51.453Z,6.72
2022-11-18T07:20:39.491Z,6.80
2022-11-18T07:23:23.151Z,6.73
2022-11-18T07:26:12.301Z,6.83
2022-11-18T07:29:02.866Z,6.82
2022-11-18T07:31:57.851Z,6.95
2022-11-18T07:34:46.070Z,6.93
2022-11-18T07:37:41.281Z,6.88
2022-11-18T07:40:22.451Z,6.97
2022-11-18T07:43:16.993Z,6.96
2022-11-18T07:46:20.911Z,6.94
2022-11-18T07:49:09.995Z,6.90
2022-11-18T07:51:51.635Z,6.97
2022-11-18T07:54:44.307Z,7.14
2022-11-18T07:57:30.123Z,7.13
2022-11-18T08:00:20.726Z,7.11
2022-11-18T08:03:11.293Z,7.24
2022-11-18T08:05:55.073Z,7.18
2022-11-18T08:08:41.296Z,7.04
2022-11-18T08:11:40.639Z,7.02
2022-11-18T08:14:26.555Z,7.14
2022-11-18T08:17:08.467Z,7.17
2022-11-18T08:19:52.906Z,7.31
2022-11-18T08:22:44.831Z,7.37
2022-11-18T08:25:28.671Z,7.62
2022-11-18T08:28:30.979Z,7.68
2022-11-18T08:31:25.497Z,7.67
2022-11-18T08:34:14.146Z,7.61
2022-11-18T08:36:54.914Z,7.65
2022-11-18T08:39:36.334Z,7.55
2022-11-18T08:42:29.909Z,7.55
2022-11-18T08:45:27.262Z,7.47
2022-11-18T08:48:11.863Z,7.52
2022-11-18T08:50:55.954Z,7.52
2022-11-18T08:53:43.187Z,7.46
2022-11-18T08:56:32.811Z,7.44
2022-11-18T08:59:28.326Z,7.54
2022-11-18T09:02:25.048Z,7.43
2022-11-18T09:05:57.389Z,7.30
2022-11-18T09:09:06.318Z,7.27
2022-11-18T09:12:09.490Z,7.15
2022-11-18T09:15:19.945Z,7.30
2022-11-18T09:18:28.411Z,7.32
2022-11-18T09:21:15.753Z,7.25
2022-11-18T09:23:59.132Z,7.27
2022-11-18T09:26:40.478Z,7.29
2022-11-18T09:29:26.590Z,7.23
2022-11-18T09:32:14.973Z,7.20
2022-11-18T09:35:11.927Z,7.04
2022-11-18T09:38:09.682Z,6.90
2022-11-18T09:41:12.958Z,6.96
2022-11-18T09:44:36.185Z,6.91
2022-11-18T09:47:26.278Z,6.90
2022-11-18T09:53:57.629Z,7.06
2022-11-18T09:56:56.343Z,7.17
2022-11-18T09:59:42.063Z,7.29
2022-11-18T10:02:54.808Z,7.18
2022-11-18T10:06:05.088Z,7.03
2022-11-18T10:09:46.924Z,7.04
2022-11-18T10:13:06.086Z,6.94
2022-11-18T10:16:35.582Z,6.88
2022-11-18T10:22:00.457Z,6.96
2022-11-18T10:24:56.416Z,6.98
2022-11-18T10:27:55.576Z,6.88
2022-11-18T10:30:38.114Z,6.85
2022-11-18T10:33:43.759Z,7.01
2022-11-18T10:36:58.529Z,7.01
2022-11-18T10:39:39.972Z,6.98
2022-11-18T10:42:32.495Z,6.96
2022-11-18T10:45:35.436Z,7.07
2022-11-18T10:48:23.617Z,7.04
2022-11-18T10:51:32.443Z,7.03
2022-11-18T10:54:39.515Z,7.04
2022-11-18T10:57:23.335Z,7.16
2022-11-18T11:03:28.014Z,6.95
2022-11-18T11:06:35.461Z,7.07
2022-11-18T11:09:41.811Z,6.97
2022-11-18T11:12:49.756Z,6.97
2022-11-18T11:15:58.356Z,7.01
2022-11-18T11:18:52.871Z,6.92
2022-11-18T11:21:39.314Z,7.00
2022-11-18T11:24:30.983Z,7.01
2022-11-18T11:31:20.930Z,6.81
2022-11-18T11:34:12.974Z,6.72
2022-11-18T11:37:16.303Z,6.83
2022-11-18T11:40:12.934Z,6.90
2022-11-18T11:43:25.294Z,6.88
2022-11-18T11:46:29.807Z,6.80
2022-11-18T11:49:29.869Z,6.84
2022-11-18T11:52:35.024Z,6.86
2022-11-18T11:55:58.247Z,6.95
2022-11-18T11:59:07.559Z,6.92
2022-11-18T12:02:38.226Z,6.87
2022-11-18T12:09:53.621Z,7.16
2022-11-18T12:13:11.835Z,7.06
2022-11-18T12:16:40.078Z,7.17
2022-11-18T12:26:54.555Z,6.79
2022-11-18T12:30:07.537Z,6.82
2022-11-18T12:33:13.491Z,6.77
2022-11-18T12:36:25.298Z,6.79
2022-11-18T12:43:10.943Z,6.81
2022-11-18T12:46:27.431Z,6.78
2022-11-18T12:49:33.325Z,6.74
2022-11-18T12:52:39.053Z,6.77
2022-11-18T12:58:57.476Z,6.84
2022-11-18T13:01:54.015Z,6.89
2022-11-18T13:04:44.367Z,7.07
2022-11-18T13:08:10.516Z,7.09
2022-11-18T13:11:31.947Z,7.01
2022-11-18T13:14:56.367Z,6.96
2022-11-18T13:17:58.017Z,7.14
2022-11-18T13:21:30.261Z,7.18
2022-11-18T13:28:01.402Z,7.23
2022-11-18T13:31:11.420Z,7.21
2022-11-18T13:34:26.648Z,7.20
2022-11-18T13:37:56.315Z,7.29
2022-11-18T13:41:12.677Z,7.38
2022-11-18T13:44:10.432Z,7.28
2022-11-18T13:46:55.788Z,7.34
2022-11-18T13:49:58.327Z,7.34
2022-11-18T13:52:45.459Z,7.31
2022-11-18T13:55:38.608Z,7.30
2022-11-18T13:59:10.354Z,7.24
2022-11-18T14:01:44.228Z,7.37
2022-11-18T14:04:28.752Z,7.37
2022-11-18T14:07:33.104Z,7.41
2022-11-18T14:10:17.716Z,7.41
2022-11-18T14:13:11.168Z,7.48
2022-11-18T14:16:18.315Z,7.46
2022-11-18T14:18:56.309Z,7.45
2022-11-18T14:21:50.418Z,7.45
2022-11-18T14:24:38.094Z,7.46
2022-11-18T14:27:50.788Z,7.50
2022-11-18T14:30:37.296Z,7.54
2022-11-18T14:34:19.935Z,7.51
2022-11-18T14:37:22.238Z,7.55
2022-11-18T14:40:27.964Z,7.59
2022-11-18T14:43:35.608Z,7.57
2022-11-18T14:46:49.855Z,7.51
2022-11-18T14:49:55.255Z,7.48
2022-11-18T14:52:57.719Z,7.45
2022-11-18T14:55:52.385Z,7.41
2022-11-18T14:58:55.528Z,7.37
2022-11-18T15:01:53.044Z,7.35
2022-11-18T15:04:49.313Z,7.30
2022-11-18T15:07:39.476Z,7.31
2022-11-18T15:10:24.236Z,7.27
2022-11-18T15:13:11.722Z,7.26
2022-11-18T15:16:09.409Z,7.32
2022-11-18T15:18:56.585Z,7.44
2022-11-18T15:21:52.357Z,7.25
2022-11-18T15:24:34.310Z,7.32
2022-11-18T15:27:18.856Z,7.27
2022-11-18T15:30:09.049Z,7.25
2022-11-18T15:32:48.955Z,7.27
2022-11-18T15:35:32.933Z,7.31
2022-11-18T15:38:16.886Z,7.32
2022-11-18T15:40:58.218Z,7.30
2022-11-18T15:43:49.335Z,7.28
2022-11-18T15:46:36.312Z,7.35
2022-11-18T15:49:31.005Z,7.38
2022-11-18T15:52:20.008Z,7.36
2022-11-18T15:55:03.192Z,7.51
2022-11-18T15:57:47.541Z,7.50
2022-11-18T16:00:29.397Z,7.50
2022-11-18T16:03:22.311Z,7.56
2022-11-18T16:06:04.298Z,7.65
2022-11-18T16:08:59.503Z,7.56
2022-11-18T16:12:06.776Z,7.43
2022-11-18T16:15:11.304Z,7.43
2022-11-18T16:17:55.356Z,7.49
2022-11-18T16:20:59.263Z,7.42
2022-11-18T16:23:38.034Z,7.38
2022-11-18T16:26:28.308Z,7.44
2022-11-18T16:29:01.385Z,7.46
2022-11-18T16:32:00.797Z,7.50
2022-11-18T16:34:36.327Z,7.61
2022-11-18T16:37:20.306Z,7.49
2022-11-18T16:40:02.231Z,7.42
2022-11-18T16:42:42.393Z,7.47
2022-11-18T16:45:26.283Z,7.50
2022-11-18T16:48:23.114Z,7.45
2022-11-18T16:51:28.135Z,7.47
2022-11-18T16:54:27.967Z,7.50
2022-11-18T16:57:11.473Z,7.52
2022-11-18T16:59:52.226Z,7.58
2022-11-18T17:02:36.483Z,7.55
2022-11-18T17:05:22.833Z,7.54
2022-11-18T17:08:11.633Z,7.55
2022-11-18T17:11:04.350Z,7.51
2022-11-18T17:13:52.058Z,7.61
2022-11-18T17:16:41.720Z,7.63
2022-11-18T17:19:35.846Z,7.50
2022-11-18T17:22:15.895Z,7.57
2022-11-18T17:25:06.367Z,7.54
2022-11-18T17:27:49.748Z,7.51
2022-11-18T17:30:43.455Z,7.53
2022-11-18T17:33:32.327Z,7.54
2022-11-18T17:36:17.304Z,7.51
2022-11-18T17:39:07.176Z,7.59
2022-11-18T17:42:01.428Z,7.34
2022-11-18T17:44:47.120Z,7.37
2022-11-18T17:47:38.363Z,7.47
2022-11-18T17:50:19.921Z,7.45
2022-11-18T17:53:05.137Z,7.45
2022-11-18T17:55:55.656Z,7.50
2022-11-18T17:58:40.687Z,7.43
2022-11-18T18:01:22.629Z,7.55
2022-11-18T18:04:06.503Z,7.55
2022-11-18T18:06:56.129Z,7.36
2022-11-18T18:09:55.393Z,7.36
2022-11-18T18:13:02.830Z,7.31
2022-11-18T18:15:52.898Z,7.38
2022-11-18T18:18:43.685Z,7.38
2022-11-18T18:21:29.519Z,7.33
2022-11-18T18:24:20.498Z,7.36
2022-11-18T18:27:06.127Z,7.36
2022-11-18T18:29:43.722Z,7.41
2022-11-18T18:32:50.902Z,7.41
2022-11-18T18:35:39.623Z,7.44
2022-11-18T18:38:28.879Z,7.47
2022-11-18T18:41:44.368Z,7.46
2022-11-18T18:44:52.009Z,7.58
2022-11-18T18:47:37.039Z,7.45
2022-11-18T18:50:28.155Z,7.46
2022-11-18T18:53:21.401Z,7.60
2022-11-18T18:56:14.327Z,7.56
2022-11-18T18:58:57.923Z,7.58
2022-11-18T19:01:41.841Z,7.50
2022-11-18T19:04:47.102Z,7.51
2022-11-18T19:07:31.378Z,7.52
2022-11-18T19:10:12.319Z,7.57
2022-11-18T19:13:00.305Z,7.63
2022-11-18T19:15:56.720Z,7.68
2022-11-18T19:18:45.310Z,7.57
2022-11-18T19:21:30.847Z,7.74
2022-11-18T19:24:42.365Z,7.70
2022-11-18T19:27:23.532Z,7.68
2022-11-18T19:30:11.361Z,7.81
2022-11-18T19:32:55.826Z,7.86
2022-11-18T19:35:37.821Z,7.76
2022-11-18T19:38:27.785Z,7.66
2022-11-18T19:41:17.639Z,7.64
2022-11-18T19:44:04.389Z,7.70
2022-11-18T19:46:49.901Z,7.72
2022-11-18T19:49:36.497Z,7.68
2022-11-18T19:52:39.014Z,7.72
2022-11-18T19:55:24.346Z,7.83
2022-11-18T19:58:16.057Z,7.81
2022-11-18T20:01:06.317Z,7.86
2022-11-18T20:03:47.467Z,7.62
2022-11-18T20:06:31.870Z,7.64
2022-11-18T20:09:25.675Z,7.63
2022-11-18T20:12:08.706Z,7.72
2022-11-18T20:15:09.951Z,7.71
2022-11-18T20:18:04.727Z,7.69
2022-11-18T20:20:59.477Z,7.47
2022-11-18T20:23:44.225Z,7.64
2022-11-18T20:26:25.317Z,7.59
2022-11-18T20:29:17.515Z,7.64
2022-11-18T20:32:00.663Z,7.26
2022-11-18T20:34:45.376Z,7.27
2022-11-18T20:37:32.015Z,7.39
2022-11-18T20:40:21.336Z,7.42
2022-11-18T20:43:14.726Z,7.40
2022-11-18T20:46:03.204Z,7.41
2022-11-18T20:48:48.455Z,7.24
2022-11-18T20:51:45.316Z,7.24
2022-11-18T20:54:29.783Z,7.09
2022-11-18T20:57:16.804Z,7.08
2022-11-18T21:00:14.267Z,6.83
2022-11-18T21:02:57.674Z,6.94
2022-11-18T21:05:41.318Z,6.89
2022-11-18T21:08:25.173Z,6.95
2022-11-18T21:11:20.211Z,6.94
2022-11-18T21:14:21.884Z,7.04
2022-11-18T21:17:12.803Z,7.05
2022-11-18T21:19:56.852Z,7.04
2022-11-18T21:22:36.284Z,7.09
2022-11-18T21:25:21.314Z,7.13
2022-11-18T21:28:11.928Z,7.15
2022-11-18T21:30:57.737Z,7.13
2022-11-18T21:33:50.594Z,7.08
2022-11-18T21:36:37.013Z,6.98
2022-11-18T21:39:30.292Z,6.95
2022-11-18T21:42:10.824Z,6.55
2022-11-18T21:44:57.735Z,6.80
2022-11-18T21:47:48.835Z,6.85
2022-11-18T21:50:35.340Z,6.74
2022-11-18T21:53:24.310Z,6.76
2022-11-18T21:56:16.858Z,6.76
2022-11-18T21:59:18.631Z,6.80
2022-11-18T22:02:02.804Z,6.70
2022-11-18T22:05:03.323Z,6.63
2022-11-18T22:07:49.301Z,6.58
2022-11-18T22:10:27.488Z,6.66
2022-11-18T22:13:14.169Z,6.60
2022-11-18T22:16:04.073Z,6.46
2022-11-18T22:19:06.688Z,6.30
2022-11-18T22:21:51.313Z,6.15
2022-11-18T22:24:37.211Z,6.11
2022-11-18T22:27:27.451Z,5.81
2022-11-18T22:30:16.350Z,5.66
2022-11-18T22:33:03.785Z,5.42
2022-11-18T22:35:57.061Z,5.24
2022-11-18T22:38:50.637Z,5.29
2022-11-18T22:41:58.181Z,5.14
2022-11-18T22:44:50.972Z,5.09
2022-11-18T22:47:39.375Z,5.19
2022-11-18T22:50:19.495Z,5.00
2022-11-18T22:53:06.033Z,4.91
2022-11-18T22:56:11.702Z,4.77
2022-11-18T22:58:58.453Z,4.85
2022-11-18T23:01:39.492Z,4.85
2022-11-18T23:04:17.455Z,4.72
2022-11-18T23:07:04.187Z,4.54
2022-11-18T23:09:48.266Z,4.46
2022-11-18T23:12:46.461Z,4.51
2022-11-18T23:15:32.591Z,4.46
2022-11-18T23:18:22.154Z,4.38
2022-11-18T23:21:12.276Z,4.48
2022-11-18T23:24:00.299Z,4.52
2022-11-18T23:26:46.109Z,4.52
2022-11-18T23:29:37.262Z,4.44
2022-11-18T23:32:16.332Z,4.42
2022-11-18T23:35:06.215Z,4.33
2022-11-18T23:37:57.929Z,4.14
2022-11-18T23:40:49.365Z,4.06
2022-11-18T23:43:31.448Z,3.83
2022-11-18T23:46:15.303Z,3.88
2022-11-18T23:48:58.919Z,3.76
2022-11-18T23:51:43.229Z,3.63
2022-11-18T23:54:27.548Z,3.74
2022-11-18T23:57:17.975Z,3.60
